createdAt,value
2019-03-18T00:00:19.583Z,6.91
2019-03-18T00:02:49.052Z,6.68
2019-03-18T00:05:18.501Z,6.74
2019-03-18T00:07:47.973Z,6.71
2019-03-18T00:10:17.422Z,6.78
2019-03-18T00:12:46.891Z,6.68
2019-03-18T00:15:16.363Z,6.88
2019-03-18T00:17:45.833Z,6.80
2019-03-18T00:20:15.355Z,6.93
2019-03-18T00:22:44.870Z,6.68
2019-03-18T00:25:15.852Z,6.73
2019-03-18T00:27:45.307Z,6.37
2019-03-18T00:30:19.961Z,6.57
2019-03-18T00:32:49.431Z,6.91
2019-03-18T00:35:18.970Z,6.69
2019-03-18T00:37:48.391Z,6.69
2019-03-18T00:40:20.827Z,6.56
2019-03-18T00:45:18.860Z,6.73
2019-03-18T00:47:48.332Z,6.80
2019-03-18T00:50:18.055Z,6.79
2019-03-18T00:52:47.527Z,6.78
2019-03-18T00:55:16.977Z,7.06
2019-03-18T00:57:46.416Z,6.98
2019-03-18T01:00:18.265Z,7.01
2019-03-18T01:02:49.644Z,7.23
2019-03-18T01:05:19.542Z,7.22
2019-03-18T01:07:48.966Z,7.30
2019-03-18T01:10:20.037Z,7.03
2019-03-18T01:12:49.487Z,7.29
2019-03-18T01:15:27.844Z,6.78
2019-03-18T01:17:50.129Z,7.42
2019-03-18T01:20:19.651Z,7.48
2019-03-18T01:22:49.145Z,7.53
2019-03-18T01:25:18.574Z,7.57
2019-03-18T01:27:48.058Z,7.20
2019-03-18T01:30:17.501Z,7.06
2019-03-18T01:32:46.965Z,7.36
2019-03-18T01:35:16.415Z,6.95
2019-03-18T01:37:45.865Z,7.20
2019-03-18T01:40:15.400Z,7.35
2019-03-18T01:42:44.920Z,7.40
2019-03-18T01:45:14.974Z,7.32
2019-03-18T01:47:44.450Z,7.33
2019-03-18T01:50:15.898Z,7.52
2019-03-18T01:52:45.356Z,7.44
2019-03-18T01:55:14.889Z,7.45
2019-03-18T01:57:44.342Z,7.26
2019-03-18T02:00:15.966Z,6.87
2019-03-18T02:02:45.511Z,7.28
2019-03-18T02:05:14.953Z,7.14
2019-03-18T02:07:44.436Z,7.30
2019-03-18T02:10:15.762Z,7.31
2019-03-18T02:12:45.337Z,7.14
2019-03-18T02:15:15.673Z,7.31
2019-03-18T02:17:45.181Z,6.81
2019-03-18T02:20:19.957Z,7.30
2019-03-18T02:22:49.379Z,7.22
2019-03-18T02:25:18.830Z,7.15
2019-03-18T02:27:48.295Z,7.28
2019-03-18T02:30:20.516Z,7.29
2019-03-18T02:32:49.956Z,7.43
2019-03-18T02:35:19.417Z,7.63
2019-03-18T02:37:49.113Z,7.87
2019-03-18T02:40:18.587Z,7.69
2019-03-18T02:42:48.047Z,7.56
2019-03-18T02:45:17.525Z,7.67
2019-03-18T02:47:46.982Z,7.61
2019-03-18T02:50:16.670Z,7.70
2019-03-18T02:52:46.142Z,7.29
2019-03-18T02:55:15.839Z,7.29
2019-03-18T02:57:45.317Z,7.24
2019-03-18T03:00:16.000Z,7.48
2019-03-18T03:02:45.461Z,7.23
2019-03-18T03:05:15.072Z,7.34
2019-03-18T03:07:44.519Z,7.48
2019-03-18T03:10:15.084Z,7.37
2019-03-18T03:12:44.553Z,7.27
2019-03-18T03:15:15.110Z,7.64
2019-03-18T03:17:44.677Z,7.44
2019-03-18T03:20:14.377Z,7.56
2019-03-18T03:22:43.851Z,7.39
2019-03-18T03:25:13.408Z,7.34
2019-03-18T03:27:42.966Z,7.50
2019-03-18T03:30:14.543Z,7.49
2019-03-18T03:32:44.097Z,7.50
2019-03-18T03:35:13.945Z,7.58
2019-03-18T03:37:43.520Z,7.48
2019-03-18T03:40:13.516Z,7.44
2019-03-18T03:42:43.196Z,7.49
2019-03-18T03:45:14.223Z,7.37
2019-03-18T03:47:43.773Z,7.44
2019-03-18T03:50:14.933Z,7.61
2019-03-18T03:52:44.487Z,7.63
2019-03-18T03:55:14.637Z,7.65
2019-03-18T03:57:44.542Z,7.64
2019-03-18T04:00:15.330Z,7.39
2019-03-18T04:02:44.892Z,7.22
2019-03-18T04:05:14.380Z,7.33
2019-03-18T04:07:44.200Z,7.43
2019-03-18T04:10:15.262Z,7.19
2019-03-18T04:12:44.738Z,7.18
2019-03-18T04:15:15.606Z,7.00
2019-03-18T04:17:45.084Z,7.44
2019-03-18T04:20:18.267Z,7.04
2019-03-18T04:22:47.748Z,7.60
2019-03-18T04:25:17.219Z,7.63
2019-03-18T04:27:46.675Z,7.75
2019-03-18T04:30:16.562Z,7.96
2019-03-18T04:32:46.018Z,7.74
2019-03-18T04:35:15.558Z,7.36
2019-03-18T04:37:45.012Z,7.83
2019-03-18T04:40:14.533Z,7.54
2019-03-18T04:42:43.999Z,7.79
2019-03-18T04:45:13.534Z,7.27
2019-03-18T04:47:43.007Z,7.93
2019-03-18T04:50:13.787Z,7.68
2019-03-18T04:52:43.238Z,7.73
2019-03-18T04:55:12.706Z,7.32
2019-03-18T04:57:42.164Z,7.59
2019-03-18T05:00:15.883Z,7.65
2019-03-18T05:02:45.580Z,7.73
2019-03-18T05:05:15.099Z,7.95
2019-03-18T05:07:44.549Z,7.88
2019-03-18T05:10:14.021Z,7.66
2019-03-18T05:12:43.481Z,7.57
2019-03-18T05:15:12.928Z,7.59
2019-03-18T05:17:42.401Z,7.70
2019-03-18T05:20:12.592Z,7.73
2019-03-18T05:22:42.065Z,7.58
2019-03-18T05:25:11.785Z,7.39
2019-03-18T05:27:41.235Z,7.20
2019-03-18T05:30:13.412Z,7.39
2019-03-18T05:32:42.863Z,7.63
2019-03-18T05:35:12.309Z,7.31
2019-03-18T05:37:41.784Z,6.97
2019-03-18T05:40:12.077Z,7.22
2019-03-18T05:42:41.522Z,7.44
2019-03-18T05:45:12.029Z,7.27
2019-03-18T05:47:41.502Z,7.42
2019-03-18T05:50:12.104Z,7.12
2019-03-18T05:52:41.577Z,7.36
2019-03-18T05:55:11.390Z,7.22
2019-03-18T05:57:41.063Z,7.51
2019-03-18T06:00:14.905Z,7.69
2019-03-18T06:02:46.789Z,7.46
2019-03-18T06:05:15.526Z,7.57
2019-03-18T06:07:44.996Z,7.68
2019-03-18T06:10:14.763Z,7.86
2019-03-18T06:12:44.269Z,7.78
2019-03-18T06:15:14.496Z,7.61
2019-03-18T06:17:52.085Z,7.76
2019-03-18T06:20:15.407Z,7.82
2019-03-18T06:22:44.867Z,8.02
2019-03-18T06:25:14.537Z,8.05
2019-03-18T06:27:44.041Z,8.01
2019-03-18T06:30:15.965Z,7.92
2019-03-18T06:32:45.427Z,7.68
2019-03-18T06:35:14.960Z,7.69
2019-03-18T06:37:44.411Z,7.81
2019-03-18T06:40:15.085Z,7.89
2019-03-18T06:42:44.558Z,7.65
2019-03-18T06:45:14.145Z,7.94
2019-03-18T06:47:43.597Z,7.84
2019-03-18T06:50:14.110Z,7.93
2019-03-18T06:52:43.558Z,7.86
2019-03-18T06:55:13.081Z,8.14
2019-03-18T06:57:42.546Z,7.90
2019-03-18T07:00:16.730Z,7.96
2019-03-18T07:02:46.189Z,8.12
2019-03-18T07:05:15.711Z,7.81
2019-03-18T07:07:45.172Z,7.97
2019-03-18T07:10:15.016Z,8.33
2019-03-18T07:12:44.465Z,8.14
2019-03-18T07:15:14.103Z,8.27
2019-03-18T07:17:43.531Z,8.18
2019-03-18T07:20:14.392Z,8.24
2019-03-18T07:22:43.927Z,8.43
2019-03-18T07:25:13.687Z,8.35
2019-03-18T07:27:43.519Z,8.44
2019-03-18T07:30:14.770Z,8.45
2019-03-18T07:32:44.298Z,8.50
2019-03-18T07:35:13.888Z,8.46
2019-03-18T07:37:43.434Z,8.52
2019-03-18T07:40:16.939Z,8.92
2019-03-18T07:42:47.338Z,9.03
2019-03-18T07:45:16.945Z,9.15
2019-03-18T07:47:46.390Z,9.33
2019-03-18T07:50:16.496Z,9.26
2019-03-18T07:52:46.016Z,9.43
2019-03-18T07:55:15.473Z,9.19
2019-03-18T07:57:44.941Z,9.31
2019-03-18T08:00:17.347Z,9.55
2019-03-18T08:02:46.867Z,9.29
2019-03-18T08:05:16.340Z,9.41
2019-03-18T08:07:45.791Z,9.11
2019-03-18T08:10:15.617Z,8.82
2019-03-18T08:12:45.086Z,9.13
2019-03-18T08:15:14.904Z,9.03
2019-03-18T08:17:44.445Z,9.46
2019-03-18T08:20:14.256Z,9.42
2019-03-18T08:22:43.713Z,9.32
2019-03-18T08:25:13.347Z,9.36
2019-03-18T08:27:42.893Z,9.28
2019-03-18T08:30:17.226Z,9.38
2019-03-18T08:32:46.663Z,9.01
2019-03-18T08:35:16.137Z,8.89
2019-03-18T08:37:45.605Z,9.37
2019-03-18T08:40:15.056Z,9.89
2019-03-18T08:42:44.499Z,9.53
2019-03-18T08:45:14.605Z,9.72
2019-03-18T08:47:44.191Z,9.42
2019-03-18T08:50:13.717Z,10.24
2019-03-18T08:52:43.184Z,10.33
2019-03-18T08:55:12.991Z,9.87
2019-03-18T08:57:42.514Z,9.61
2019-03-18T09:00:14.695Z,9.11
2019-03-18T09:02:44.234Z,8.85
2019-03-18T09:05:14.017Z,9.33
2019-03-18T09:07:43.466Z,9.24
2019-03-18T09:10:14.947Z,9.05
2019-03-18T09:12:44.533Z,9.52
2019-03-18T09:15:14.570Z,9.54
2019-03-18T09:17:44.033Z,9.29
2019-03-18T09:20:17.808Z,9.72
2019-03-18T09:22:47.337Z,9.95
2019-03-18T09:25:16.976Z,9.97
2019-03-18T09:27:46.398Z,10.10
2019-03-18T09:30:23.177Z,10.51
2019-03-18T09:32:52.641Z,10.21
2019-03-18T09:35:22.102Z,10.42
2019-03-18T09:37:51.557Z,10.22
2019-03-18T09:40:21.018Z,10.31
2019-03-18T09:42:50.492Z,10.22
2019-03-18T09:45:20.097Z,10.69
2019-03-18T09:47:49.560Z,10.26
2019-03-18T09:50:19.152Z,10.75
2019-03-18T09:52:48.668Z,10.84
2019-03-18T09:55:18.143Z,10.37
2019-03-18T09:57:47.845Z,10.45
2019-03-18T10:00:19.989Z,9.95
2019-03-18T10:02:49.445Z,10.04
2019-03-18T10:05:18.951Z,9.56
2019-03-18T10:07:48.499Z,10.09
2019-03-18T10:10:18.049Z,10.21
2019-03-18T10:12:47.518Z,9.97
2019-03-18T10:15:21.480Z,10.15
2019-03-18T10:17:50.931Z,10.21
2019-03-18T10:20:20.473Z,10.01
2019-03-18T10:22:50.016Z,9.43
2019-03-18T10:25:19.670Z,8.69
2019-03-18T10:27:49.122Z,9.53
2019-03-18T10:30:18.576Z,9.47
2019-03-18T10:32:48.046Z,9.67
2019-03-18T10:35:17.499Z,9.70
2019-03-18T10:37:46.962Z,10.06
2019-03-18T10:40:16.447Z,10.45
2019-03-18T10:42:46.137Z,10.12
2019-03-18T10:45:15.978Z,10.20
2019-03-18T10:47:45.427Z,9.95
2019-03-18T10:50:18.713Z,9.93
2019-03-18T10:52:48.182Z,9.42
2019-03-18T10:55:17.650Z,9.67
2019-03-18T10:57:47.108Z,9.67
2019-03-18T11:00:20.584Z,9.87
2019-03-18T11:02:50.541Z,10.04
2019-03-18T11:05:19.999Z,10.36
2019-03-18T11:07:51.726Z,10.14
2019-03-18T11:10:20.803Z,10.14
2019-03-18T11:12:50.266Z,9.58
2019-03-18T11:15:23.239Z,9.00
2019-03-18T11:17:52.694Z,8.50
2019-03-18T11:20:22.155Z,8.64
2019-03-18T11:22:51.688Z,8.53
2019-03-18T11:25:21.243Z,8.63
2019-03-18T11:27:50.714Z,9.23
2019-03-18T11:30:20.903Z,9.33
2019-03-18T11:32:50.354Z,10.11
2019-03-18T11:35:19.827Z,10.61
2019-03-18T11:37:49.283Z,10.96
2019-03-18T11:40:22.289Z,10.58
2019-03-18T11:42:51.764Z,11.21
2019-03-18T11:45:21.313Z,11.35
2019-03-18T11:47:50.838Z,11.89
2019-03-18T11:50:21.247Z,11.82
2019-03-18T11:52:50.777Z,11.94
2019-03-18T11:55:25.475Z,11.72
2019-03-18T11:57:54.998Z,11.56
2019-03-18T12:00:25.955Z,11.47
2019-03-18T12:02:55.499Z,12.09
2019-03-18T12:05:29.007Z,12.41
2019-03-18T12:07:58.466Z,12.68
2019-03-18T12:10:28.011Z,12.77
2019-03-18T12:12:57.461Z,12.67
2019-03-18T12:15:27.955Z,12.86
2019-03-18T12:17:57.493Z,12.71
2019-03-18T12:20:27.017Z,11.96
2019-03-18T12:22:56.560Z,12.63
2019-03-18T12:25:26.031Z,12.00
2019-03-18T12:27:55.485Z,12.59
2019-03-18T12:30:27.051Z,12.50
2019-03-18T12:32:56.518Z,12.12
2019-03-18T12:35:26.080Z,13.54
2019-03-18T12:37:55.666Z,12.42
2019-03-18T12:40:25.181Z,13.18
2019-03-18T12:42:54.669Z,12.65
2019-03-18T12:45:24.141Z,13.43
2019-03-18T12:47:53.596Z,14.11
2019-03-18T12:50:42.917Z,14.68
2019-03-18T12:52:55.707Z,14.92
2019-03-18T12:55:25.223Z,14.56
2019-03-18T12:57:54.706Z,14.71
2019-03-18T13:00:33.488Z,11.99
2019-03-18T13:03:03.059Z,12.62
2019-03-18T13:05:32.578Z,12.61
2019-03-18T13:08:02.120Z,12.30
2019-03-18T13:10:31.585Z,12.33
2019-03-18T13:13:01.028Z,12.30
2019-03-18T13:15:30.605Z,13.57
2019-03-18T13:18:00.079Z,13.84
2019-03-18T13:20:29.541Z,14.08
2019-03-18T13:22:58.998Z,12.65
2019-03-18T13:25:28.482Z,11.90
2019-03-18T13:27:57.928Z,11.74
2019-03-18T13:30:27.393Z,11.21
2019-03-18T13:32:56.859Z,11.50
2019-03-18T13:35:26.318Z,11.41
2019-03-18T13:37:55.767Z,10.99
2019-03-18T13:40:25.250Z,11.25
2019-03-18T13:42:54.769Z,11.37
2019-03-18T13:45:24.854Z,11.37
2019-03-18T13:47:54.330Z,11.49
2019-03-18T13:50:23.932Z,11.34
2019-03-18T13:52:53.395Z,11.53
2019-03-18T13:55:22.917Z,11.37
2019-03-18T13:57:52.367Z,11.73
2019-03-18T14:00:23.623Z,12.32
2019-03-18T14:02:53.146Z,12.65
2019-03-18T14:05:22.671Z,13.72
2019-03-18T14:08:00.374Z,14.40
2019-03-18T14:10:24.394Z,15.31
2019-03-18T14:12:54.111Z,14.68
2019-03-18T14:15:25.780Z,14.50
2019-03-18T14:17:55.294Z,14.43
2019-03-18T14:20:31.308Z,15.25
2019-03-18T14:23:00.762Z,14.95
2019-03-18T14:25:30.294Z,12.62
2019-03-18T14:27:59.764Z,11.30
2019-03-18T14:30:29.216Z,10.62
2019-03-18T14:32:58.693Z,11.46
2019-03-18T14:35:28.143Z,12.26
2019-03-18T14:37:57.616Z,11.50
2019-03-18T14:40:27.248Z,11.49
2019-03-18T14:42:56.688Z,11.03
2019-03-18T14:45:26.244Z,11.94
2019-03-18T14:47:55.791Z,12.36
2019-03-18T14:50:25.241Z,13.81
2019-03-18T14:52:54.705Z,14.58
2019-03-18T14:55:24.182Z,14.29
2019-03-18T14:57:53.635Z,13.58
2019-03-18T15:00:24.802Z,13.86
2019-03-18T15:02:54.265Z,13.30
2019-03-18T15:05:23.749Z,15.06
2019-03-18T15:07:53.359Z,14.96
2019-03-18T15:10:30.068Z,15.50
2019-03-18T15:12:59.715Z,15.76
2019-03-18T15:15:29.196Z,16.48
2019-03-18T15:17:58.655Z,16.05
2019-03-18T15:20:29.222Z,16.36
2019-03-18T15:22:58.708Z,15.49
2019-03-18T15:25:34.226Z,17.26
2019-03-18T15:28:03.880Z,15.15
2019-03-18T15:30:33.319Z,14.50
2019-03-18T15:33:02.780Z,15.37
2019-03-18T15:35:32.271Z,15.15
2019-03-18T15:38:01.698Z,13.02
2019-03-18T15:40:31.427Z,13.19
2019-03-18T15:43:00.893Z,13.27
2019-03-18T15:45:30.351Z,13.40
2019-03-18T15:48:00.662Z,13.20
2019-03-18T15:50:30.116Z,13.72
2019-03-18T15:52:59.570Z,13.41
2019-03-18T15:55:29.053Z,14.29
2019-03-18T15:57:58.526Z,15.85
2019-03-18T16:00:30.846Z,15.01
2019-03-18T16:03:00.871Z,14.57
2019-03-18T16:05:30.346Z,14.09
2019-03-18T16:07:59.957Z,13.55
2019-03-18T16:10:29.416Z,13.30
2019-03-18T16:12:59.122Z,12.68
2019-03-18T16:15:28.599Z,11.88
2019-03-18T16:17:58.058Z,11.31
2019-03-18T16:20:28.156Z,11.53
2019-03-18T16:22:57.642Z,11.76
2019-03-18T16:25:27.099Z,12.40
2019-03-18T16:27:56.553Z,13.68
2019-03-18T16:30:26.102Z,14.42
2019-03-18T16:32:55.548Z,14.01
2019-03-18T16:35:25.034Z,14.60
2019-03-18T16:37:54.582Z,14.35
2019-03-18T16:40:24.888Z,14.23
2019-03-18T16:42:54.411Z,12.92
2019-03-18T16:45:24.023Z,12.88
2019-03-18T16:47:53.475Z,12.27
2019-03-18T16:50:32.579Z,12.95
2019-03-18T16:53:02.101Z,12.80
2019-03-18T16:55:31.629Z,12.48
2019-03-18T16:58:01.149Z,11.81
2019-03-18T17:00:30.737Z,11.81
2019-03-18T17:03:00.347Z,11.41
2019-03-18T17:05:29.846Z,11.29
2019-03-18T17:07:59.339Z,11.23
2019-03-18T17:10:28.826Z,11.18
2019-03-18T17:12:58.349Z,11.11
2019-03-18T17:15:28.097Z,10.72
2019-03-18T17:17:57.653Z,10.74
2019-03-18T17:20:27.157Z,10.53
2019-03-18T17:22:56.726Z,9.95
2019-03-18T17:25:31.438Z,10.07
2019-03-18T17:28:00.903Z,10.15
2019-03-18T17:30:30.384Z,10.03
2019-03-18T17:32:59.829Z,9.91
2019-03-18T17:35:29.344Z,9.66
2019-03-18T17:37:59.146Z,9.97
2019-03-18T17:40:28.664Z,9.58
2019-03-18T17:42:58.254Z,9.52
2019-03-18T17:45:27.688Z,9.57
2019-03-18T17:47:57.150Z,9.59
2019-03-18T17:50:31.075Z,9.60
2019-03-18T17:53:03.726Z,9.49
2019-03-18T17:55:31.731Z,9.68
2019-03-18T17:58:01.267Z,9.23
2019-03-18T18:00:34.838Z,9.23
2019-03-18T18:03:04.474Z,9.37
2019-03-18T18:05:33.922Z,9.52
2019-03-18T18:08:03.423Z,9.44
2019-03-18T18:10:32.887Z,9.26
2019-03-18T18:13:02.410Z,9.08
2019-03-18T18:15:31.867Z,8.94
2019-03-18T18:18:01.338Z,9.05
2019-03-18T18:20:30.798Z,9.11
2019-03-18T18:23:00.236Z,9.24
2019-03-18T18:25:29.700Z,9.10
2019-03-18T18:27:59.222Z,9.55
2019-03-18T18:30:28.694Z,9.55
2019-03-18T18:32:58.164Z,9.51
2019-03-18T18:35:27.639Z,9.49
2019-03-18T18:37:57.089Z,9.24
2019-03-18T18:40:31.438Z,9.41
2019-03-18T18:43:00.917Z,9.61
2019-03-18T18:45:30.366Z,9.39
2019-03-18T18:47:59.814Z,9.14
2019-03-18T18:50:29.281Z,9.05
2019-03-18T18:52:58.759Z,9.36
2019-03-18T18:55:28.203Z,9.41
2019-03-18T18:57:57.680Z,9.50
2019-03-18T19:00:27.130Z,9.48
2019-03-18T19:02:56.586Z,9.41
2019-03-18T19:05:26.203Z,9.65
2019-03-18T19:07:57.639Z,9.70
2019-03-18T19:10:26.951Z,9.39
2019-03-18T19:12:56.542Z,9.33
2019-03-18T19:15:38.224Z,9.37
2019-03-18T19:18:07.724Z,9.19
2019-03-18T19:20:37.219Z,8.85
2019-03-18T19:23:06.733Z,8.71
2019-03-18T19:25:36.185Z,8.26
2019-03-18T19:28:06.745Z,8.08
2019-03-18T19:30:36.222Z,8.27
2019-03-18T19:33:05.668Z,8.18
2019-03-18T19:35:35.118Z,7.74
2019-03-18T19:38:04.588Z,8.30
2019-03-18T19:40:34.039Z,8.33
2019-03-18T19:43:03.511Z,8.50
2019-03-18T19:45:32.960Z,8.51
2019-03-18T19:48:02.496Z,8.61
2019-03-18T19:50:33.309Z,8.31
2019-03-18T19:53:02.829Z,8.45
2019-03-18T19:55:32.285Z,8.35
2019-03-18T19:58:01.763Z,8.26
2019-03-18T20:00:32.125Z,8.20
2019-03-18T20:03:01.577Z,8.12
2019-03-18T20:05:31.046Z,7.48
2019-03-18T20:08:00.494Z,7.29
2019-03-18T20:10:29.947Z,7.59
2019-03-18T20:12:59.423Z,7.55
2019-03-18T20:15:28.942Z,7.53
2019-03-18T20:17:58.396Z,7.51
2019-03-18T20:20:27.878Z,7.64
2019-03-18T20:22:57.322Z,7.69
2019-03-18T20:25:26.775Z,7.60
2019-03-18T20:27:56.251Z,7.19
2019-03-18T20:30:25.731Z,6.65
2019-03-18T20:32:55.171Z,6.78
2019-03-18T20:35:27.557Z,6.66
2019-03-18T20:37:57.021Z,6.88
2019-03-18T20:40:26.500Z,7.10
2019-03-18T20:42:55.973Z,7.22
2019-03-18T20:45:26.739Z,7.16
2019-03-18T20:47:56.214Z,7.13
2019-03-18T20:50:26.007Z,7.14
2019-03-18T20:52:55.487Z,7.00
2019-03-18T20:55:25.007Z,6.95
2019-03-18T20:57:54.488Z,6.89
2019-03-18T21:00:24.719Z,6.73
2019-03-18T21:02:54.245Z,6.56
2019-03-18T21:05:25.123Z,6.50
2019-03-18T21:07:55.009Z,6.41
2019-03-18T21:10:24.465Z,6.02
2019-03-18T21:12:53.937Z,6.21
2019-03-18T21:15:23.405Z,6.32
2019-03-18T21:17:52.851Z,6.21
2019-03-18T21:20:25.277Z,6.07
2019-03-18T21:22:54.752Z,6.12
2019-03-18T21:25:24.276Z,6.18
2019-03-18T21:27:53.748Z,6.26
2019-03-18T21:30:23.953Z,5.76
2019-03-18T21:32:53.442Z,5.98
2019-03-18T21:35:22.856Z,6.04
2019-03-18T21:37:52.327Z,6.19
2019-03-18T21:40:22.323Z,5.87
2019-03-18T21:42:51.847Z,6.04
2019-03-18T21:45:23.603Z,5.98
2019-03-18T21:47:53.897Z,6.10
2019-03-18T21:50:23.415Z,5.93
2019-03-18T21:52:52.945Z,6.04
2019-03-18T21:55:22.411Z,5.91
2019-03-18T21:57:51.886Z,6.01
2019-03-18T22:00:24.498Z,5.85
2019-03-18T22:02:53.958Z,5.76
2019-03-18T22:05:23.424Z,5.79
2019-03-18T22:07:52.872Z,5.35
2019-03-18T22:10:22.830Z,5.61
2019-03-18T22:12:52.299Z,5.65
2019-03-18T22:15:21.985Z,5.45
2019-03-18T22:17:51.443Z,5.49
2019-03-18T22:20:23.727Z,5.36
2019-03-18T22:22:53.169Z,5.54
2019-03-18T22:25:22.624Z,5.24
2019-03-18T22:27:52.105Z,5.41
2019-03-18T22:30:21.624Z,5.38
2019-03-18T22:32:51.079Z,5.47
2019-03-18T22:35:20.657Z,5.42
2019-03-18T22:37:50.242Z,5.33
2019-03-18T22:40:19.899Z,5.22
2019-03-18T22:42:49.536Z,5.23
2019-03-18T22:45:19.283Z,5.33
2019-03-18T22:47:48.725Z,5.25
2019-03-18T22:50:18.636Z,5.30
2019-03-18T22:52:48.086Z,5.25
2019-03-18T22:55:17.567Z,5.12
2019-03-18T22:57:47.131Z,4.90
2019-03-18T23:00:24.155Z,4.95
2019-03-18T23:02:53.698Z,5.01
2019-03-18T23:05:23.282Z,4.81
2019-03-18T23:07:52.809Z,4.90
2019-03-18T23:10:22.305Z,4.37
2019-03-18T23:12:51.770Z,4.45
2019-03-18T23:15:21.303Z,4.58
2019-03-18T23:17:50.795Z,4.80
2019-03-18T23:20:20.284Z,4.67
2019-03-18T23:22:49.872Z,4.70
2019-03-18T23:25:19.609Z,4.69
2019-03-18T23:27:49.118Z,4.69
2019-03-18T23:30:18.690Z,4.56
2019-03-18T23:32:48.546Z,4.49
2019-03-18T23:35:18.023Z,4.62
2019-03-18T23:37:47.539Z,4.43
2019-03-18T23:40:17.066Z,4.66
2019-03-18T23:42:46.537Z,4.42
2019-03-18T23:45:15.995Z,4.54
2019-03-18T23:47:45.472Z,4.42
2019-03-18T23:50:16.160Z,4.50
2019-03-18T23:52:45.644Z,4.35
2019-03-18T23:55:19.549Z,4.22
2019-03-18T23:57:46.257Z,4.25
